Time;durP1;ratioP1;P1;durP2;ratioP2;P2;SDS_P1;SDS_P2;PMS_P1;PMS_P2;Temp;Humidity;BMP_temperature;BMP_pressure;BME280_temperature;BME280_humidity;BME280_pressure;Samples;Min_cycle;Max_cycle;Signal;HPM_P1;HPM_P2
2021/04/14 00:01:12;;;;;;;16.03;12.70;;;-0.90;99.90;;;-0.43;53.56;95094.66;4974821;28;20165;-70
2021/04/14 00:03:42;;;;;;;14.00;11.60;;;-0.90;99.90;;;-0.29;53.38;95097.41;4987167;28;20178;-69
2021/04/14 00:06:10;;;;;;;14.57;11.80;;;-0.90;99.90;;;-0.23;53.59;95088.91;4987400;28;20198;-71
2021/04/14 00:08:36;;;;;;;15.43;12.80;;;-0.80;99.90;;;-0.26;53.48;95084.03;4989161;28;20197;-70
2021/04/14 00:11:05;;;;;;;15.57;12.63;;;-0.90;99.90;;;-0.26;53.54;95081.44;4991546;28;20613;-69
2021/04/14 00:13:41;;;;;;;17.97;13.10;;;-0.80;99.90;;;-0.25;53.62;95082.25;4995493;28;20242;-69
2021/04/14 00:16:19;;;;;;;14.77;11.57;;;-0.80;99.90;;;-0.21;53.43;95079.16;4991435;28;20182;-71
2021/04/14 00:18:48;;;;;;;15.97;12.20;;;-0.80;99.90;;;-0.28;53.74;95077.38;4970235;28;20179;-70
2021/04/14 00:21:18;;;;;;;15.60;12.93;;;-0.90;99.90;;;-0.55;53.55;95068.22;4971757;28;20186;-71
2021/04/14 00:23:46;;;;;;;14.77;11.73;;;-1.00;99.90;;;-0.56;54.02;95076.97;4990533;28;20194;-70
2021/04/14 00:26:16;;;;;;;16.60;12.27;;;-1.10;99.90;;;-0.50;53.73;95072.91;4955654;28;20198;-71
2021/04/14 00:28:43;;;;;;;17.00;12.77;;;-1.00;99.90;;;-0.53;53.67;95077.47;4967254;28;20880;-71
2021/04/14 00:31:11;;;;;;;17.10;12.53;;;-1.00;99.90;;;-0.45;53.94;95063.63;4968646;28;20332;-72
2021/04/14 00:33:39;;;;;;;15.33;12.13;;;-1.00;99.90;;;-0.57;53.79;95057.13;4974210;28;20557;-71
2021/04/14 00:36:09;;;;;;;15.83;12.20;;;-1.00;99.90;;;-0.57;53.78;95070.97;4971562;28;20579;-71
2021/04/14 00:38:35;;;;;;;17.27;12.00;;;-1.10;99.90;;;-0.58;54.32;95061.56;5001576;28;20189;-72
2021/04/14 00:41:08;;;;;;;14.93;12.37;;;-1.10;99.90;;;-0.60;53.78;95063.50;4975246;28;20205;-72
2021/04/14 00:43:37;;;;;;;16.37;12.93;;;-1.10;99.90;;;-0.62;54.38;95055.06;4972876;28;20192;-71
2021/04/14 00:46:07;;;;;;;15.33;12.07;;;-1.10;99.90;;;-0.67;54.35;95051.34;4987037;28;20260;-71
2021/04/14 00:48:34;;;;;;;17.43;13.00;;;-1.10;99.90;;;-0.72;54.40;95045.81;4985333;28;20196;-73
2021/04/14 00:51:04;;;;;;;17.40;12.23;;;-1.20;99.90;;;-0.68;54.10;95045.31;4970224;28;20184;-71
2021/04/14 00:53:30;;;;;;;16.40;12.73;;;-1.20;99.90;;;-0.59;54.28;95044.31;4973061;28;20188;-72
2021/04/14 00:55:56;;;;;;;17.07;13.13;;;-1.10;99.90;;;-0.60;54.04;95047.88;4991587;28;20655;-70
2021/04/14 00:58:24;;;;;;;14.70;12.17;;;-1.20;99.90;;;-0.64;54.32;95040.59;4974295;28;20168;-71
2021/04/14 01:00:52;;;;;;;17.93;12.97;;;-1.20;99.90;;;-0.60;54.35;95037.47;4992681;28;20174;-72
2021/04/14 01:03:21;;;;;;;16.00;13.43;;;-1.10;99.90;;;-0.68;54.22;95031.50;4993432;28;20704;-73
2021/04/14 01:05:50;;;;;;;15.63;12.77;;;-1.20;99.90;;;-0.63;54.52;95032.59;4979024;28;20189;-71
2021/04/14 01:08:16;;;;;;;15.30;13.10;;;-1.20;99.90;;;-0.62;54.48;95023.81;4994109;28;20181;-73
2021/04/14 01:10:42;;;;;;;16.70;12.17;;;-1.20;99.90;;;-0.68;54.53;95026.28;4962403;28;20183;-71
2021/04/14 01:13:12;;;;;;;15.47;12.07;;;-1.20;99.90;;;-0.63;54.89;95016.16;4993283;28;20536;-71
2021/04/14 01:15:45;;;;;;;16.60;12.40;;;-1.20;99.90;;;-0.72;54.53;95017.19;4975036;28;20572;-70
2021/04/14 01:18:27;;;;;;;14.73;11.57;;;-1.30;99.90;;;-0.70;54.79;95029.03;4982139;28;20224;-70
2021/04/14 01:20:55;;;;;;;13.83;11.27;;;-1.30;99.90;;;-0.74;54.52;95014.75;4987207;28;20703;-71
2021/04/14 01:23:25;;;;;;;17.37;12.77;;;-1.30;99.90;;;-0.71;54.89;95024.03;4993931;28;20178;-71
2021/04/14 01:25:52;;;;;;;16.27;12.57;;;-1.30;99.90;;;-0.80;55.07;95012.00;4993988;28;20536;-70
2021/04/14 01:28:23;;;;;;;14.87;12.43;;;-1.30;99.90;;;-0.74;54.58;95013.94;4975020;28;20222;-70
2021/04/14 01:30:57;;;;;;;16.63;13.27;;;-1.30;99.90;;;-0.82;54.87;95014.78;4991765;28;20599;-71
2021/04/14 01:33:32;;;;;;;15.83;11.93;;;-1.40;99.90;;;-0.86;54.57;95020.47;4976706;28;20208;-70
2021/04/14 01:36:04;;;;;;;19.77;14.37;;;-1.40;99.90;;;-0.83;54.93;95017.53;4976876;28;20216;-70
2021/04/14 01:38:30;;;;;;;18.20;13.80;;;-1.40;99.90;;;-0.90;55.28;95007.00;4993032;28;20226;-70
2021/04/14 01:41:02;;;;;;;20.40;13.80;;;-1.40;99.90;;;-1.06;55.07;95007.84;4993420;28;20275;-72
2021/04/14 01:43:31;;;;;;;18.00;14.43;;;-1.50;99.90;;;-1.25;55.31;95016.03;4991958;28;20269;-71
2021/04/14 01:45:58;;;;;;;17.80;14.13;;;-1.70;99.90;;;-1.27;55.29;95015.34;4978153;28;20578;-70
2021/04/14 01:48:24;;;;;;;16.17;13.43;;;-1.70;99.90;;;-1.12;55.37;95011.13;5009522;28;20253;-71
2021/04/14 01:50:50;;;;;;;18.40;13.27;;;-1.60;99.90;;;-1.09;55.23;95016.00;4993002;28;20190;-70
2021/04/14 01:53:20;;;;;;;21.60;14.20;;;-1.60;99.90;;;-1.02;55.32;95010.94;4974791;28;20665;-72
2021/04/14 01:55:51;;;;;;;18.10;13.77;;;-1.50;99.90;;;-1.02;55.63;95005.72;4992626;28;20177;-70
2021/04/14 01:58:18;;;;;;;19.83;14.20;;;-1.50;99.90;;;-1.00;55.56;95010.75;4993476;28;20626;-70
2021/04/14 02:00:53;;;;;;;17.80;13.73;;;-1.50;99.90;;;-1.00;55.61;95000.34;4993452;28;20538;-71
2021/04/14 02:03:20;;;;;;;16.63;12.67;;;-1.50;99.90;;;-1.00;55.43;94992.53;4982275;28;20323;-71
2021/04/14 02:05:46;;;;;;;18.23;12.90;;;-1.50;99.90;;;-1.03;55.74;94991.09;4992855;28;20192;-71
2021/04/14 02:08:12;;;;;;;14.50;11.63;;;-1.60;99.90;;;-1.03;55.45;94996.28;4992338;28;20196;-71
2021/04/14 02:10:41;;;;;;;17.03;12.90;;;-1.60;99.90;;;-1.11;55.65;94985.94;4975642;28;20708;-71
2021/04/14 02:13:18;;;;;;;16.73;12.47;;;-1.60;99.90;;;-1.07;55.80;94990.63;5009637;28;20615;-72
2021/04/14 02:15:49;;;;;;;17.33;13.10;;;-1.60;99.90;;;-1.26;56.01;94990.19;4957920;28;20656;-71
2021/04/14 02:18:15;;;;;;;16.00;12.13;;;-1.80;99.90;;;-1.25;55.66;94990.03;4973403;28;20163;-73
2021/04/14 02:20:43;;;;;;;17.33;12.83;;;-1.80;99.90;;;-1.25;55.54;94984.00;4993067;28;20186;-70
2021/04/14 02:23:21;;;;;;;16.73;12.10;;;-1.80;99.90;;;-1.22;55.52;94994.06;4994342;28;20192;-71
2021/04/14 02:25:47;;;;;;;16.70;12.97;;;-1.80;99.90;;;-1.16;55.93;94978.63;4976097;28;20586;-71
2021/04/14 02:28:16;;;;;;;16.33;12.33;;;-1.70;99.90;;;-1.28;55.76;94977.34;4992237;28;20288;-72
2021/04/14 02:30:43;;;;;;;14.47;12.10;;;-1.80;99.90;;;-1.27;55.82;94981.56;4973480;28;20212;-71
2021/04/14 02:33:11;;;;;;;15.77;12.27;;;-1.80;99.90;;;-1.30;55.72;94971.50;4992227;28;20265;-70
2021/04/14 02:35:40;;;;;;;15.40;12.47;;;-1.80;99.90;;;-1.33;56.12;94973.63;4975115;28;20224;-70
2021/04/14 02:38:07;;;;;;;17.77;12.47;;;-1.80;99.90;;;-1.44;55.86;94977.38;4992784;28;20175;-70
2021/04/14 02:40:37;;;;;;;14.50;12.03;;;-1.90;99.90;;;-1.33;56.04;94971.00;4992857;28;20217;-71
2021/04/14 02:43:06;;;;;;;16.70;13.40;;;-1.90;99.90;;;-1.35;56.44;94975.56;4991982;28;20227;-70
2021/04/14 02:45:37;;;;;;;14.93;12.20;;;-1.90;99.90;;;-1.28;56.14;94972.16;4975487;28;20184;-70
2021/04/14 02:48:06;;;;;;;17.03;12.70;;;-1.80;99.90;;;-1.38;56.19;94973.31;4991683;28;20182;-71
2021/04/14 02:50:35;;;;;;;13.83;11.90;;;-1.90;99.90;;;-1.47;56.69;94969.91;4991766;28;20196;-70
2021/04/14 02:53:09;;;;;;;16.83;12.00;;;-1.90;99.90;;;-1.56;56.00;94971.72;5007890;28;20202;-70
2021/04/14 02:55:38;;;;;;;15.87;12.70;;;-2.00;99.90;;;-1.56;56.30;94958.72;4991733;28;20248;-71
2021/04/14 02:58:04;;;;;;;18.20;12.60;;;-2.00;99.90;;;-1.52;56.55;94961.78;4993453;28;20296;-70
2021/04/14 03:00:31;;;;;;;17.90;13.20;;;-2.00;99.90;;;-1.48;56.41;94972.69;4972152;28;20706;-72
2021/04/14 03:02:59;;;;;;;19.33;14.60;;;-2.00;99.90;;;-1.45;56.23;94957.56;4991070;28;20188;-71
2021/04/14 03:05:32;;;;;;;19.80;14.73;;;-2.00;99.90;;;-1.40;56.26;94968.25;4995794;28;20410;-70
2021/04/14 03:07:59;;;;;;;20.83;14.17;;;-2.00;99.90;;;-1.51;56.40;94958.19;4979753;28;20178;-70
2021/04/14 03:10:26;;;;;;;22.00;14.83;;;-2.10;99.90;;;-1.47;56.63;94959.50;4974107;28;20167;-69
2021/04/14 03:12:55;;;;;;;20.70;14.67;;;-2.10;99.90;;;-1.58;56.82;94958.06;4975211;28;20205;-70
2021/04/14 03:15:40;;;;;;;21.30;14.70;;;-2.10;99.90;;;-1.54;56.28;94958.53;4972702;28;20220;-70
2021/04/14 03:18:12;;;;;;;25.00;15.63;;;-2.10;99.90;;;-1.50;56.93;94953.81;4968996;28;20261;-70
2021/04/14 03:20:41;;;;;;;19.57;14.13;;;-2.10;99.90;;;-1.50;56.33;94941.63;4991320;28;20242;-72
2021/04/14 03:23:12;;;;;;;21.57;15.70;;;-2.10;99.90;;;-1.74;56.96;94946.88;4970615;28;20183;-70
2021/04/14 03:25:42;;;;;;;24.20;15.73;;;-2.30;99.90;;;-1.82;56.99;94952.06;4990554;28;20182;-72
2021/04/14 03:28:12;;;;;;;21.50;15.83;;;-2.30;99.90;;;-1.74;56.69;94946.88;4991712;28;20189;-70
2021/04/14 03:30:39;;;;;;;21.97;16.27;;;-2.30;99.90;;;-1.71;56.61;94943.94;4991008;28;20168;-71
2021/04/14 03:33:06;;;;;;;21.27;16.03;;;-2.20;99.90;;;-1.67;57.00;94945.22;4974576;28;20178;-72
2021/04/14 03:35:35;;;;;;;24.20;16.47;;;-2.20;99.90;;;-1.71;57.20;94936.97;4990075;28;20257;-70
2021/04/14 03:38:04;;;;;;;24.17;16.60;;;-2.20;99.90;;;-1.72;56.96;94944.94;4992093;28;20188;-71
2021/04/14 03:40:31;;;;;;;23.53;16.87;;;-2.30;99.90;;;-1.82;57.26;94934.72;4975093;28;20190;-70
2021/04/14 03:42:57;;;;;;;24.27;17.03;;;-2.30;99.90;;;-1.73;56.83;94935.50;4973410;28;20178;-70
2021/04/14 03:45:37;;;;;;;21.53;16.00;;;-2.30;99.90;;;-1.72;57.00;94940.56;4986232;28;20191;-70
2021/04/14 03:48:11;;;;;;;20.37;15.07;;;-2.30;99.90;;;-1.75;57.53;94940.88;4991629;28;20216;-71
2021/04/14 03:50:39;;;;;;;21.23;15.10;;;-2.30;99.90;;;-1.68;57.46;94935.84;4991495;28;20188;-71
2021/04/14 03:53:28;;;;;;;20.73;14.30;;;-2.20;99.90;;;-1.68;57.33;94928.03;4991141;28;20220;-70
2021/04/14 03:56:08;;;;;;;18.73;13.07;;;-2.20;99.90;;;-1.73;57.25;94930.31;4987543;28;20209;-72
2021/04/14 03:58:37;;;;;;;17.40;13.00;;;-2.30;99.90;;;-1.74;57.26;94931.28;4990160;28;20274;-70
2021/04/14 04:01:27;;;;;;;18.70;14.37;;;-2.30;99.90;;;-1.69;57.16;94932.44;4975016;28;20167;-70
2021/04/14 04:03:58;;;;;;;17.47;12.87;;;-2.30;99.90;;;-1.78;57.44;94923.00;4989566;28;20529;-70
2021/04/14 04:06:27;;;;;;;16.80;12.70;;;-2.30;99.90;;;-1.75;57.59;94929.69;4991899;28;20210;-70
2021/04/14 04:08:53;;;;;;;18.17;14.43;;;-2.30;99.90;;;-1.82;57.39;94923.50;4990059;28;20191;-70
2021/04/14 04:11:26;;;;;;;17.87;14.00;;;-2.40;99.90;;;-1.75;57.31;94929.69;4988709;28;20260;-69
2021/04/14 04:13:53;;;;;;;21.33;14.70;;;-2.30;99.90;;;-1.68;57.36;94921.03;4990979;28;20823;-70
2021/04/14 04:16:23;;;;;;;20.00;15.13;;;-2.30;99.90;;;-1.62;57.58;94924.78;4974468;28;20208;-69
2021/04/14 04:18:52;;;;;;;18.50;14.07;;;-2.30;99.90;;;-1.52;57.60;94919.41;4990618;28;20255;-69
2021/04/14 04:21:19;;;;;;;20.53;15.03;;;-2.20;99.90;;;-1.50;57.79;94918.25;4991259;28;20195;-70
2021/04/14 04:23:48;;;;;;;19.47;14.60;;;-2.10;99.90;;;-1.46;57.45;94921.34;4972413;28;20211;-70
2021/04/14 04:26:14;;;;;;;21.23;15.93;;;-2.10;99.90;;;-1.50;57.96;94913.06;4974035;28;20293;-69
2021/04/14 04:28:45;;;;;;;20.70;15.50;;;-2.10;99.90;;;-1.46;57.82;94914.34;4988592;28;20183;-70
2021/04/14 04:31:16;;;;;;;24.63;16.17;;;-2.10;99.90;;;-1.51;58.31;94924.41;4981312;28;20206;-70
2021/04/14 04:33:44;;;;;;;23.50;16.30;;;-2.10;99.90;;;-1.51;58.02;94908.81;4989920;28;20183;-71
2021/04/14 04:36:13;;;;;;;21.53;16.30;;;-2.10;99.90;;;-1.43;58.14;94914.00;4990231;28;20221;-70
2021/04/14 04:38:39;;;;;;;24.53;18.10;;;-2.10;99.90;;;-1.32;57.67;94911.06;4983949;28;20187;-71
2021/04/14 04:41:05;;;;;;;22.37;16.33;;;-2.00;99.90;;;-1.24;58.48;94913.63;4971618;28;20206;-71
2021/04/14 04:43:33;;;;;;;23.27;16.10;;;-1.90;99.90;;;-1.09;58.02;94904.16;4970664;28;20201;-71
2021/04/14 04:46:02;;;;;;;23.20;16.23;;;-1.80;99.90;;;-1.18;58.44;94912.16;4989726;28;20630;-70
2021/04/14 04:48:28;;;;;;;22.83;15.60;;;-1.80;99.90;;;-1.22;58.36;94909.09;4989592;28;20189;-71
2021/04/14 04:50:54;;;;;;;22.37;16.53;;;-1.80;99.90;;;-1.41;58.14;94917.25;4989476;28;20192;-70
2021/04/14 04:53:25;;;;;;;28.33;17.70;;;-2.00;99.90;;;-1.36;58.60;94924.56;4989018;28;20197;-70
2021/04/14 04:55:53;;;;;;;20.67;16.17;;;-2.00;99.90;;;-1.23;58.53;94914.44;4991480;28;20182;-71
2021/04/14 04:58:20;;;;;;;25.37;17.23;;;-1.90;99.90;;;-1.26;58.55;94904.38;4978142;28;20181;-70
2021/04/14 05:00:47;;;;;;;20.90;16.33;;;-1.90;99.90;;;-1.36;57.97;94919.34;4991170;28;20507;-73
2021/04/14 05:03:16;;;;;;;23.87;17.03;;;-1.90;99.90;;;-1.47;58.64;94917.91;4990295;28;20189;-70
2021/04/14 05:05:43;;;;;;;22.67;16.20;;;-2.00;99.90;;;-1.43;58.76;94926.19;4989858;28;20184;-70
2021/04/14 05:08:12;;;;;;;22.80;16.57;;;-2.00;99.90;;;-1.37;58.85;94928.94;4984070;28;20207;-71
2021/04/14 05:10:38;;;;;;;22.73;16.33;;;-2.00;99.90;;;-1.36;58.57;94935.78;4987058;28;20183;-68
2021/04/14 05:13:06;;;;;;;24.33;16.67;;;-1.90;99.90;;;-1.14;58.59;94927.25;4989579;28;20183;-68
2021/04/14 05:15:38;;;;;;;24.43;17.13;;;-1.80;99.90;;;-1.03;58.61;94918.28;4973156;28;20197;-69
2021/04/14 05:18:05;;;;;;;20.47;15.80;;;-1.70;99.90;;;-0.89;59.00;94924.56;4982433;28;20189;-69
2021/04/14 05:20:31;;;;;;;20.20;15.47;;;-1.60;99.90;;;-0.78;58.96;94925.00;4979936;28;20173;-68
2021/04/14 05:23:05;;;;;;;16.93;13.87;;;-1.50;99.90;;;-0.68;59.00;94925.59;4973215;28;20246;-67
2021/04/14 05:25:37;;;;;;;17.13;13.63;;;-1.40;99.90;;;-0.65;59.28;94930.47;4962262;28;20570;-69
2021/04/14 05:28:08;;;;;;;19.10;14.30;;;-1.30;99.90;;;-0.58;58.92;94928.00;4981617;28;20191;-70
2021/04/14 05:30:34;;;;;;;17.87;13.60;;;-1.20;99.90;;;-0.50;59.67;94932.34;4987247;28;20194;-71
2021/04/14 05:33:01;;;;;;;17.40;13.93;;;-1.10;99.90;;;-0.39;58.90;94930.16;4984374;28;20608;-69
2021/04/14 05:35:27;;;;;;;17.27;13.33;;;-1.00;99.90;;;-0.25;59.34;94932.03;4972840;28;20229;-70
2021/04/14 05:37:53;;;;;;;16.43;12.57;;;-0.90;99.90;;;-0.19;59.30;94936.53;4988974;28;20580;-69
2021/04/14 05:40:21;;;;;;;15.93;12.37;;;-0.80;99.90;;;-0.11;59.47;94933.06;4971266;28;20225;-69
2021/04/14 05:42:50;;;;;;;14.77;11.33;;;-0.70;99.90;;;0.00;59.56;94933.47;4987224;28;20193;-69
2021/04/14 05:45:37;;;;;;;18.08;16.23;;;-0.60;99.90;;;-0.08;59.14;94935.31;4969857;28;20780;-70
2021/04/14 05:48:05;;;;;;;16.30;13.40;;;-0.70;99.90;;;0.02;59.18;94935.09;4991659;28;20194;-73
2021/04/14 05:50:31;;;;;;;17.63;14.37;;;-0.60;99.90;;;0.13;59.38;94935.50;4985436;28;20277;-69
2021/04/14 05:52:57;;;;;;;16.97;13.30;;;-0.50;99.90;;;0.30;60.08;94933.56;4959462;28;20909;-69
2021/04/14 05:55:23;;;;;;;20.90;15.07;;;-0.40;99.90;;;0.34;59.77;94938.22;4991098;28;20293;-71
2021/04/14 05:57:49;;;;;;;17.70;14.23;;;-0.30;99.90;;;0.44;59.81;94937.97;4976181;28;20317;-66
2021/04/14 06:00:17;;;;;;;17.53;14.40;;;-0.20;99.90;;;0.56;59.67;94936.59;5003911;28;20272;-67
2021/04/14 06:02:43;;;;;;;17.93;14.40;;;-0.10;99.90;;;0.69;59.80;94938.56;4992519;28;20206;-72
2021/04/14 06:05:15;;;;;;;18.03;14.57;;;0.00;99.90;;;0.88;59.89;94943.25;4981924;28;20182;-70
2021/04/14 06:07:41;;;;;;;18.53;14.83;;;0.20;99.90;;;0.91;60.45;94937.66;4984161;28;20207;-69
2021/04/14 06:10:10;;;;;;;17.40;14.20;;;0.30;99.90;;;1.13;59.77;94949.03;5003388;28;20190;-69
2021/04/14 06:12:40;;;;;;;17.83;15.37;;;0.40;99.90;;;1.56;60.29;94956.00;4986745;28;20656;-69
2021/04/14 06:15:14;;;;;;;15.73;13.10;;;0.80;99.90;;;2.85;60.65;94993.25;4991405;28;20207;-69
2021/04/14 06:17:41;;;;;;;15.03;12.13;;;1.80;99.90;;;4.77;60.70;94993.81;4968166;28;20652;-71
2021/04/14 06:20:11;;;;;;;13.43;12.03;;;3.80;99.90;;;6.19;61.00;94924.47;4993099;28;20267;-69
2021/04/14 06:22:39;;;;;;;15.33;11.80;;;5.40;99.90;;;7.18;60.95;94960.59;4974703;28;20189;-69
2021/04/14 06:25:09;;;;;;;12.57;11.20;;;6.60;99.90;;;7.68;60.66;94974.47;5008053;28;20188;-72
2021/04/14 06:27:48;;;;;;;13.37;11.97;;;7.20;99.90;;;8.58;60.91;94923.38;4969138;28;20177;-74
2021/04/14 06:30:17;;;;;;;14.27;12.47;;;8.10;99.90;;;9.24;61.06;94933.66;4995194;28;20181;-73
2021/04/14 06:32:48;;;;;;;15.03;12.57;;;8.90;99.90;;;9.52;60.82;94932.94;4975016;28;20182;-70
2021/04/14 06:35:18;;;;;;;16.10;12.20;;;9.50;99.90;;;9.69;60.58;94920.59;4990727;28;20343;-73
2021/04/14 06:37:46;;;;;;;14.60;13.07;;;9.80;99.90;;;9.33;60.61;94954.47;4991194;28;20180;-71
2021/04/14 06:40:42;;;;;;;14.60;13.10;;;9.60;99.90;;;10.00;60.38;94967.06;4975610;28;20179;-73
2021/04/14 06:43:33;;;;;;;13.17;11.87;;;10.20;99.90;;;11.38;60.26;94993.16;4974669;28;20186;-72
2021/04/14 06:46:12;;;;;;;12.80;11.53;;;11.40;99.90;;;11.09;60.26;94866.91;4988282;28;20209;-72
2021/04/14 06:48:55;;;;;;;12.03;10.83;;;11.90;98.10;;;11.56;60.05;94958.34;4976831;28;20197;-72
2021/04/14 06:51:32;;;;;;;12.30;11.10;;;12.00;97.00;;;12.52;59.87;94978.22;5009725;28;20783;-72
2021/04/14 06:54:08;;;;;;;11.13;10.13;;;13.00;95.30;;;13.73;60.01;94931.28;4973543;28;20205;-73
2021/04/14 06:56:39;;;;;;;11.23;10.23;;;14.10;92.00;;;14.04;60.01;94934.91;4992345;28;20168;-72
2021/04/14 06:59:11;;;;;;;11.07;10.07;;;14.90;88.80;;;14.90;59.60;94969.91;4991701;28;20212;-72
2021/04/14 07:02:13;;;;;;;9.80;9.00;;;16.00;84.20;;;14.79;59.52;94922.91;4972132;28;20216;-72
2021/04/14 07:05:28;;;;;;;9.67;8.77;;;16.40;77.50;;;14.71;59.31;94942.88;4984838;28;20185;-73
2021/04/14 07:07:58;;;;;;;9.10;8.30;;;16.10;78.20;;;16.20;59.15;94988.81;4989905;28;20197;-71
2021/04/14 07:10:30;;;;;;;9.10;8.23;;;17.00;73.50;;;16.35;59.10;94885.19;4983501;28;20270;-73
2021/04/14 07:13:03;;;;;;;8.43;7.73;;;17.70;72.60;;;16.22;59.19;94907.19;4990666;28;20186;-72
2021/04/14 07:15:30;;;;;;;8.63;7.80;;;17.50;68.50;;;16.48;58.59;94878.44;4990754;28;20199;-71
2021/04/14 07:18:23;;;;;;;8.60;7.90;;;17.60;68.10;;;15.83;58.41;94957.88;4974745;28;20241;-73
2021/04/14 07:21:12;;;;;;;8.23;7.57;;;17.20;66.90;;;15.14;58.18;94962.19;4974793;28;20187;-72
2021/04/14 07:24:15;;;;;;;8.50;7.67;;;16.50;66.90;;;16.06;57.97;94937.75;4968747;28;20178;-68
2021/04/14 07:26:56;;;;;;;8.30;7.60;;;16.90;68.10;;;16.12;57.84;94906.44;4989434;28;20174;-72
2021/04/14 07:29:47;;;;;;;8.30;7.50;;;17.40;67.40;;;17.18;57.61;94952.19;4973914;28;20187;-70
2021/04/14 07:32:43;;;;;;;7.53;6.83;;;18.50;64.40;;;16.99;57.20;94872.78;4990071;28;20184;-73
2021/04/14 07:35:54;;;;;;;7.80;6.70;;;18.60;61.00;;;17.00;57.21;94919.88;4983754;28;20294;-68
2021/04/14 07:38:45;;;;;;;7.40;6.70;;;18.30;61.80;;;15.68;56.74;94864.34;4924053;29;20204;-69
2021/04/14 07:41:38;;;;;;;7.03;6.43;;;17.90;61.10;;;16.22;56.52;95003.50;4909980;29;20188;-72
2021/04/14 07:44:19;;;;;;;7.60;6.90;;;17.40;62.10;;;16.69;56.39;94973.63;4924454;29;20190;-73
2021/04/14 07:46:49;;;;;;;6.93;6.43;;;17.70;63.50;;;17.58;56.25;94932.31;4912064;29;20182;-74
2021/04/14 07:49:20;;;;;;;7.10;6.60;;;19.20;61.20;;;18.22;55.94;95023.16;4913213;29;20213;-72
2021/04/14 07:51:47;;;;;;;7.37;6.83;;;19.30;58.90;;;18.28;55.90;94909.28;4915385;29;20199;-73
2021/04/14 07:54:21;;;;;;;6.83;6.33;;;19.90;57.70;;;19.77;55.77;94947.97;4930612;29;20421;-72
2021/04/14 07:56:53;;;;;;;6.97;6.33;;;21.20;56.50;;;19.23;55.61;94839.16;4901591;29;20189;-74
2021/04/14 07:59:33;;;;;;;6.87;6.37;;;21.40;54.60;;;19.32;55.25;94917.22;4933316;29;20191;-72
2021/04/14 08:02:09;;;;;;;6.40;5.90;;;21.50;54.00;;;19.75;55.10;94942.06;4923506;29;20195;-73
2021/04/14 08:04:45;;;;;;;6.60;6.10;;;21.60;53.90;;;19.07;54.86;94835.09;4917787;29;20277;-70
2021/04/14 08:07:16;;;;;;;6.67;6.07;;;21.60;52.00;;;19.50;54.41;94937.13;4927868;29;20282;-71
2021/04/14 08:09:53;;;;;;;6.10;5.63;;;20.90;53.30;;;20.10;54.25;94922.59;4931791;29;20192;-71
2021/04/14 08:13:05;;;;;;;6.60;6.10;;;21.80;54.40;;;20.15;54.15;94941.31;4929953;29;20255;-71
2021/04/14 08:15:45;;;;;;;6.87;6.37;;;21.90;52.10;;;19.85;53.83;94928.44;4903047;29;20655;-71
2021/04/14 08:18:30;;;;;;;7.50;6.67;;;21.70;51.60;;;20.56;53.47;94989.03;4914166;28;20176;-69
2021/04/14 08:21:09;;;;;;;6.97;6.40;;;22.70;51.60;;;21.62;53.22;94871.50;4900117;29;20240;-71
2021/04/14 08:23:38;;;;;;;6.60;6.10;;;24.00;49.50;;;21.20;53.06;94883.63;4917204;29;20199;-72
2021/04/14 08:26:17;;;;;;;7.07;6.50;;;23.90;48.50;;;22.59;52.60;94966.94;4913708;29;20214;-73
2021/04/14 08:28:48;;;;;;;6.40;5.90;;;24.70;48.60;;;21.43;52.66;94890.59;4909747;29;20324;-71
2021/04/14 08:31:35;;;;;;;6.87;6.20;;;23.50;47.30;;;20.12;52.32;94974.22;4908207;29;20191;-70
2021/04/14 08:34:31;;;;;;;6.53;6.03;;;22.60;49.20;;;19.86;52.05;94962.31;4913592;29;20312;-74
2021/04/14 08:37:19;;;;;;;6.57;5.93;;;22.10;48.40;;;21.13;51.70;94983.00;4911466;29;20636;-76
2021/04/14 08:40:17;;;;;;;5.40;5.00;;;22.80;49.30;;;21.28;51.56;94982.69;4904565;29;20222;-72
2021/04/14 08:42:44;;;;;;;5.93;5.03;;;22.60;48.40;;;21.51;51.20;94877.47;4874011;29;20220;-73
2021/04/14 08:45:22;;;;;;;5.30;4.90;;;23.30;48.50;;;21.04;51.12;94889.66;4872640;29;20200;-73
2021/04/14 08:48:02;;;;;;;4.93;4.63;;;23.20;47.40;;;20.70;50.83;94795.84;4857600;29;20186;-72
2021/04/14 08:50:33;;;;;;;5.17;4.70;;;22.90;45.90;;;19.36;50.50;94798.06;4858471;29;20189;-71
2021/04/14 08:53:04;;;;;;;6.80;5.20;;;21.70;46.90;;;19.07;50.45;94815.53;4859985;29;20201;-72
2021/04/14 08:55:31;;;;;;;5.80;5.30;;;21.00;49.40;;;19.10;50.11;94826.47;4876212;29;20212;-73
2021/04/14 08:58:01;;;;;;;5.30;4.80;;;21.00;48.80;;;18.55;49.80;94855.00;4880028;29;20252;-73
2021/04/14 09:00:29;;;;;;;5.57;5.03;;;20.10;49.50;;;17.06;49.49;94859.84;4885525;29;20188;-73
2021/04/14 09:03:06;;;;;;;4.80;4.40;;;18.70;52.70;;;17.32;49.49;94906.78;4891646;29;20192;-72
2021/04/14 09:05:37;;;;;;;5.57;5.07;;;18.50;52.90;;;17.89;49.41;94855.84;4890511;29;20240;-70
2021/04/14 09:08:12;;;;;;;5.67;4.83;;;18.90;51.60;;;18.87;49.08;94959.00;4891055;29;20190;-72
2021/04/14 09:10:52;;;;;;;6.23;5.10;;;20.10;52.20;;;20.72;49.00;94899.50;4891082;29;20380;-71
2021/04/14 09:13:30;;;;;;;5.10;4.60;;;22.00;48.40;;;21.02;48.88;94895.31;4861915;29;20208;-72
2021/04/14 09:16:00;;;;;;;5.37;4.87;;;22.90;47.80;;;20.92;48.72;94836.25;4872166;29;20213;-71
2021/04/14 09:18:38;;;;;;;5.20;4.80;;;23.10;47.00;;;22.24;48.61;94966.00;4894034;28;20182;-71
2021/04/14 09:21:16;;;;;;;5.00;4.60;;;24.00;47.00;;;23.75;48.56;94948.00;4993719;28;20248;-72
2021/04/14 09:24:06;;;;;;;5.03;4.40;;;25.90;45.20;;;24.03;47.93;94864.44;4986900;28;20716;-74
2021/04/14 09:26:40;;;;;;;4.90;4.50;;;26.80;43.50;;;24.51;47.62;94902.78;5007574;28;20162;-73
2021/04/14 09:29:34;;;;;;;4.67;4.33;;;27.40;42.50;;;25.18;47.52;94952.69;4973458;28;20182;-70
2021/04/14 09:32:10;;;;;;;4.80;4.40;;;27.80;41.10;;;25.69;47.29;94948.75;4988889;28;20178;-67
2021/04/14 09:34:49;;;;;;;4.97;4.50;;;29.10;41.00;;;26.12;46.91;94870.34;4960913;28;20574;-69
2021/04/14 09:37:16;;;;;;;4.47;4.17;;;29.50;40.40;;;25.76;46.77;94879.19;4974711;28;20181;-69
2021/04/14 09:39:45;;;;;;;5.00;4.50;;;28.60;39.30;;;24.51;46.48;94774.63;4994414;28;20170;-69
2021/04/14 09:42:23;;;;;;;5.17;4.20;;;28.00;38.70;;;23.16;45.96;94919.84;4992714;28;20198;-74
2021/04/14 09:44:55;;;;;;;4.93;4.53;;;26.30;40.10;;;24.06;45.73;94797.97;4992118;28;20197;-74
2021/04/14 09:47:34;;;;;;;4.77;4.40;;;26.80;40.30;;;21.18;45.57;94877.75;4987392;28;20200;-73
2021/04/14 09:50:28;;;;;;;5.13;4.72;;;24.00;43.70;;;19.98;45.45;94951.09;4975764;28;20757;-72
2021/04/14 09:53:19;;;;;;;5.47;4.50;;;22.60;43.90;;;21.51;45.26;94961.09;4981525;28;20205;-70
2021/04/14 09:55:54;;;;;;;5.30;4.83;;;22.90;44.50;;;22.34;45.22;94888.19;4978186;28;20209;-73
2021/04/14 09:58:42;;;;;;;4.90;4.50;;;23.90;42.30;;;22.25;44.97;94916.28;4989312;28;20192;-73
2021/04/14 10:01:33;;;;;;;4.90;4.50;;;23.70;43.20;;;21.69;44.50;94882.63;4992526;28;20158;-71
2021/04/14 10:04:15;;;;;;;4.90;4.50;;;23.60;42.80;;;21.58;44.22;94831.97;4992351;28;20197;-69
2021/04/14 10:06:41;;;;;;;4.93;4.53;;;23.10;42.90;;;22.21;43.86;94921.50;4982611;28;20595;-70
2021/04/14 10:09:22;;;;;;;5.00;4.50;;;23.50;42.80;;;23.96;43.95;94864.16;4992741;28;20217;-70
2021/04/14 10:11:49;;;;;;;4.47;4.03;;;25.40;41.70;;;23.11;43.66;94829.91;4992428;28;20538;-72
2021/04/14 10:14:22;;;;;;;4.30;3.90;;;25.10;40.90;;;24.16;43.70;94912.22;4989830;28;20703;-72
2021/04/14 10:16:53;;;;;;;4.43;4.13;;;25.80;41.90;;;24.80;43.36;94803.56;4991143;28;20189;-70
2021/04/14 10:19:30;;;;;;;4.67;4.23;;;27.00;39.70;;;23.34;43.02;94905.16;4973995;28;20585;-70
2021/04/14 10:22:03;;;;;;;4.70;4.30;;;25.60;41.20;;;24.81;42.88;94821.44;4991580;28;20178;-69
2021/04/14 10:24:29;;;;;;;4.80;4.40;;;27.20;39.30;;;24.52;42.53;94814.94;4991526;28;20653;-68
2021/04/14 10:26:56;;;;;;;4.67;4.37;;;26.70;39.90;;;20.89;42.67;94710.19;4991705;28;20197;-69
2021/04/14 10:29:32;;;;;;;4.87;4.33;;;23.70;41.50;;;18.91;42.08;94814.94;4973214;28;20528;-68
2021/04/14 10:32:01;;;;;;;4.90;4.40;;;21.30;44.30;;;19.61;42.07;94818.31;4989315;28;20193;-68
2021/04/14 10:34:35;;;;;;;4.57;4.00;;;21.30;46.60;;;18.10;42.14;94836.81;4990208;28;20209;-68